createdAt,value
2017-04-18T00:00:37.764Z,0
2017-04-18T00:01:18.303Z,0
2017-04-18T00:01:58.857Z,0
2017-04-18T00:02:39.392Z,0
2017-04-18T00:03:19.929Z,0
2017-04-18T00:04:00.462Z,0
2017-04-18T00:04:41.005Z,0
2017-04-18T00:05:21.621Z,0
2017-04-18T00:06:02.160Z,0
2017-04-18T00:06:42.697Z,0
2017-04-18T00:07:23.226Z,0
2017-04-18T00:08:03.756Z,0
2017-04-18T00:08:44.290Z,0
2017-04-18T00:09:24.821Z,0
2017-04-18T00:10:05.368Z,0
2017-04-18T00:10:45.911Z,0
2017-04-18T00:11:26.438Z,0
2017-04-18T00:12:06.971Z,0
2017-04-18T00:12:47.505Z,0
2017-04-18T00:13:28.034Z,0
2017-04-18T00:14:08.566Z,0
2017-04-18T00:14:49.082Z,0
2017-04-18T00:15:29.625Z,0
2017-04-18T00:16:10.184Z,0
2017-04-18T00:16:50.717Z,0
2017-04-18T00:17:31.269Z,0
2017-04-18T00:18:11.810Z,0
2017-04-18T00:18:52.342Z,0
2017-04-18T00:19:32.885Z,0
2017-04-18T00:20:13.426Z,0
2017-04-18T00:20:53.973Z,0
2017-04-18T00:21:34.542Z,0
2017-04-18T00:22:15.076Z,0
2017-04-18T00:22:55.626Z,0
2017-04-18T00:23:36.179Z,0
2017-04-18T00:24:16.731Z,0
2017-04-18T00:24:57.263Z,0
2017-04-18T00:25:37.833Z,0
2017-04-18T00:26:18.386Z,0
2017-04-18T00:26:58.909Z,0
2017-04-18T00:27:39.442Z,0
2017-04-18T00:28:20.013Z,0
2017-04-18T00:29:00.546Z,0
2017-04-18T00:29:41.094Z,0
2017-04-18T00:30:21.659Z,0
2017-04-18T00:31:02.203Z,0
2017-04-18T00:31:42.727Z,0
2017-04-18T00:32:23.263Z,0
2017-04-18T00:33:03.803Z,0
2017-04-18T00:33:44.338Z,0
2017-04-18T00:34:24.886Z,0
2017-04-18T00:35:05.444Z,0
2017-04-18T00:35:45.987Z,0
2017-04-18T00:36:26.551Z,0
2017-04-18T00:37:07.097Z,0
2017-04-18T00:37:47.657Z,0
2017-04-18T00:38:28.200Z,0
2017-04-18T00:39:08.744Z,0
2017-04-18T00:39:49.296Z,0
2017-04-18T00:40:29.849Z,0
2017-04-18T00:41:10.393Z,0
2017-04-18T00:41:50.930Z,0
2017-04-18T00:42:31.482Z,0
2017-04-18T00:43:12.047Z,0
2017-04-18T00:43:52.584Z,0
2017-04-18T00:44:33.116Z,0
2017-04-18T00:45:13.681Z,0
2017-04-18T00:45:54.214Z,0
2017-04-18T00:46:34.743Z,0
2017-04-18T00:47:15.274Z,0
2017-04-18T00:47:55.804Z,0
2017-04-18T00:48:36.345Z,0
2017-04-18T00:49:16.882Z,0
2017-04-18T00:49:57.423Z,0
2017-04-18T00:50:37.958Z,0
2017-04-18T00:51:18.497Z,0
2017-04-18T00:51:59.033Z,0
2017-04-18T00:52:39.567Z,0
2017-04-18T00:53:20.103Z,0
2017-04-18T00:54:00.654Z,0
2017-04-18T00:54:41.207Z,0
2017-04-18T00:55:21.771Z,0
2017-04-18T00:56:02.314Z,0
2017-04-18T00:56:42.838Z,0
2017-04-18T00:57:23.369Z,0
2017-04-18T00:58:03.914Z,0
2017-04-18T00:58:44.481Z,0
2017-04-18T00:59:25.033Z,0
2017-04-18T01:00:05.554Z,0
2017-04-18T01:00:46.088Z,0
2017-04-18T01:01:26.622Z,0
2017-04-18T01:02:07.180Z,0
2017-04-18T01:02:47.713Z,0
2017-04-18T01:03:28.241Z,0
2017-04-18T01:04:08.782Z,0
2017-04-18T01:04:49.316Z,0
2017-04-18T01:05:29.844Z,0
2017-04-18T01:06:10.399Z,0
2017-04-18T01:06:50.919Z,0
2017-04-18T01:07:31.467Z,0
2017-04-18T01:08:11.996Z,0
2017-04-18T01:08:52.529Z,0
2017-04-18T01:09:33.060Z,0
2017-04-18T01:10:13.599Z,0
2017-04-18T01:10:54.133Z,0
2017-04-18T01:11:34.660Z,0
2017-04-18T01:12:15.190Z,0
2017-04-18T01:12:55.725Z,0
2017-04-18T01:13:36.267Z,0
2017-04-18T01:14:16.803Z,0
2017-04-18T01:14:57.338Z,0
2017-04-18T01:15:37.882Z,0
2017-04-18T01:16:18.426Z,0
2017-04-18T01:16:58.950Z,0
2017-04-18T01:17:39.484Z,0
2017-04-18T01:18:20.024Z,0
2017-04-18T01:19:00.557Z,0
2017-04-18T01:19:41.098Z,0
2017-04-18T01:20:21.637Z,0
2017-04-18T01:21:02.172Z,0
2017-04-18T01:21:42.708Z,0
2017-04-18T01:22:23.248Z,0
2017-04-18T01:23:03.783Z,0
2017-04-18T01:23:44.319Z,0
2017-04-18T01:24:24.876Z,0
2017-04-18T01:25:05.405Z,0
2017-04-18T01:25:45.948Z,0
2017-04-18T01:26:26.482Z,0
2017-04-18T01:27:07.042Z,0
2017-04-18T01:27:47.575Z,0
2017-04-18T01:28:28.124Z,0
2017-04-18T01:29:08.665Z,0
2017-04-18T01:29:49.194Z,0
2017-04-18T01:30:29.729Z,0
2017-04-18T01:31:10.273Z,0
2017-04-18T01:31:50.838Z,0
2017-04-18T01:32:31.369Z,0
2017-04-18T01:33:11.912Z,0
2017-04-18T01:33:52.442Z,0
2017-04-18T01:34:32.984Z,0
2017-04-18T01:35:13.518Z,0
2017-04-18T01:35:54.056Z,0
2017-04-18T01:36:34.586Z,0
2017-04-18T01:37:15.121Z,0
2017-04-18T01:37:55.688Z,0
2017-04-18T01:38:36.238Z,0
2017-04-18T01:39:16.779Z,0
2017-04-18T01:39:57.325Z,0
2017-04-18T01:40:37.853Z,0
2017-04-18T01:41:18.404Z,0
2017-04-18T01:41:58.943Z,0
2017-04-18T01:42:39.474Z,0
2017-04-18T01:43:20.016Z,0
2017-04-18T01:44:00.561Z,0
2017-04-18T01:44:41.095Z,0
2017-04-18T01:45:21.624Z,0
2017-04-18T01:46:02.152Z,0
2017-04-18T01:46:42.705Z,0
2017-04-18T01:47:23.251Z,0
2017-04-18T01:48:03.774Z,0
2017-04-18T01:48:44.287Z,0
2017-04-18T01:49:24.832Z,0
2017-04-18T01:50:05.357Z,0
2017-04-18T01:50:45.872Z,0
2017-04-18T01:51:26.390Z,0
2017-04-18T01:52:06.931Z,0
2017-04-18T01:52:47.457Z,0
2017-04-18T01:53:28.013Z,0
2017-04-18T01:54:08.556Z,0
2017-04-18T01:54:49.075Z,0
2017-04-18T01:55:29.599Z,0
2017-04-18T01:56:10.124Z,0
2017-04-18T01:56:50.661Z,0
2017-04-18T01:57:31.182Z,0
2017-04-18T01:58:11.711Z,0
2017-04-18T01:58:52.243Z,0
2017-04-18T01:59:32.761Z,0
2017-04-18T02:00:13.282Z,0
2017-04-18T02:00:53.813Z,0
2017-04-18T02:01:34.335Z,0
2017-04-18T02:02:14.869Z,0
2017-04-18T02:02:55.412Z,0
2017-04-18T02:03:35.927Z,0
2017-04-18T02:04:16.454Z,0
2017-04-18T02:04:56.967Z,0
2017-04-18T02:05:37.482Z,0
2017-04-18T02:06:18.013Z,0
2017-04-18T02:06:58.539Z,0
2017-04-18T02:07:39.075Z,0
2017-04-18T02:08:19.564Z,0
2017-04-18T02:09:00.093Z,0
2017-04-18T02:09:40.631Z,0
2017-04-18T02:10:21.162Z,0
2017-04-18T02:11:01.697Z,0
2017-04-18T02:11:42.217Z,0
2017-04-18T02:12:22.740Z,0
2017-04-18T02:13:03.269Z,0
2017-04-18T02:13:43.814Z,0
2017-04-18T02:14:24.333Z,0
2017-04-18T02:15:04.870Z,0
2017-04-18T02:15:45.399Z,0
2017-04-18T02:16:25.919Z,0
2017-04-18T02:17:06.425Z,0
2017-04-18T02:17:46.959Z,0
2017-04-18T02:18:27.488Z,0
2017-04-18T02:19:08.017Z,0
2017-04-18T02:19:48.593Z,0
2017-04-18T02:20:29.125Z,0
2017-04-18T02:21:09.669Z,0
2017-04-18T02:21:50.197Z,0
2017-04-18T02:22:30.718Z,0
2017-04-18T02:23:11.246Z,0
2017-04-18T02:23:51.785Z,0
2017-04-18T02:24:32.312Z,0
2017-04-18T02:25:12.833Z,0
2017-04-18T02:25:53.340Z,0
2017-04-18T02:26:33.877Z,0
2017-04-18T02:27:14.396Z,0
2017-04-18T02:27:54.912Z,0
2017-04-18T02:28:35.428Z,0
2017-04-18T02:29:15.946Z,0
2017-04-18T02:29:56.460Z,0
2017-04-18T02:30:37.013Z,0
2017-04-18T02:31:17.544Z,0
2017-04-18T02:31:58.051Z,0
2017-04-18T02:32:38.571Z,0
2017-04-18T02:33:19.102Z,0
2017-04-18T02:33:59.633Z,0
2017-04-18T02:34:40.163Z,0
2017-04-18T02:35:20.700Z,0
2017-04-18T02:36:01.226Z,0
2017-04-18T02:36:41.755Z,0
2017-04-18T02:37:22.287Z,0
2017-04-18T02:38:02.830Z,0
2017-04-18T02:38:43.342Z,0
2017-04-18T02:39:23.861Z,0
2017-04-18T02:40:04.395Z,0
2017-04-18T02:40:44.914Z,0
2017-04-18T02:41:25.456Z,0
2017-04-18T02:42:05.973Z,0
2017-04-18T02:42:46.480Z,0
2017-04-18T02:43:26.988Z,0
2017-04-18T02:44:07.526Z,0
2017-04-18T02:44:48.035Z,0
2017-04-18T02:45:28.566Z,0
2017-04-18T02:46:09.090Z,0
2017-04-18T02:46:49.608Z,0
2017-04-18T02:47:30.129Z,0
2017-04-18T02:48:10.642Z,0
2017-04-18T02:48:51.179Z,0
2017-04-18T02:49:31.707Z,0
2017-04-18T02:50:12.229Z,0
2017-04-18T02:50:52.764Z,0
2017-04-18T02:51:33.293Z,0
2017-04-18T02:52:13.811Z,0
2017-04-18T02:52:54.335Z,0
2017-04-18T02:53:34.848Z,0
2017-04-18T02:54:15.366Z,0
2017-04-18T02:54:55.899Z,0
2017-04-18T02:55:36.434Z,0
2017-04-18T02:56:16.953Z,0
2017-04-18T02:56:57.464Z,0
2017-04-18T02:57:37.997Z,0
2017-04-18T02:58:18.517Z,0
2017-04-18T02:58:59.043Z,0
2017-04-18T02:59:39.577Z,0
2017-04-18T03:00:20.110Z,0
2017-04-18T03:01:00.635Z,0
2017-04-18T03:01:41.188Z,0
2017-04-18T03:02:21.698Z,0
2017-04-18T03:03:02.246Z,0
2017-04-18T03:03:43.131Z,0
2017-04-18T03:04:23.732Z,0
2017-04-18T03:05:04.650Z,0
2017-04-18T03:05:45.163Z,0
2017-04-18T03:06:25.706Z,0
2017-04-18T03:07:06.236Z,0
2017-04-18T03:07:46.783Z,0
2017-04-18T03:08:27.314Z,0
2017-04-18T03:09:07.859Z,0
2017-04-18T03:09:48.404Z,0
2017-04-18T03:10:28.934Z,0
2017-04-18T03:11:09.459Z,0
2017-04-18T03:11:50.000Z,0
2017-04-18T03:12:30.542Z,0
2017-04-18T03:13:11.073Z,0
2017-04-18T03:13:51.607Z,0
2017-04-18T03:14:32.133Z,0
2017-04-18T03:15:12.662Z,0
2017-04-18T03:15:53.214Z,0
2017-04-18T03:16:33.735Z,0
2017-04-18T03:17:14.265Z,0
2017-04-18T03:17:54.781Z,0
2017-04-18T03:18:35.317Z,0
2017-04-18T03:19:15.843Z,0
2017-04-18T03:19:56.373Z,0
2017-04-18T03:20:36.936Z,0
2017-04-18T03:21:17.419Z,0
2017-04-18T03:21:57.948Z,0
2017-04-18T03:22:38.483Z,0
2017-04-18T03:23:19.035Z,0
2017-04-18T03:23:59.541Z,0
2017-04-18T03:24:40.070Z,0
2017-04-18T03:25:20.597Z,0
2017-04-18T03:26:01.130Z,0
2017-04-18T03:26:41.646Z,0
2017-04-18T03:27:22.194Z,0
2017-04-18T03:28:02.717Z,0
2017-04-18T03:28:43.267Z,0
2017-04-18T03:29:23.777Z,0
2017-04-18T03:30:04.303Z,0
2017-04-18T03:30:44.823Z,0
2017-04-18T03:31:25.332Z,0
2017-04-18T03:32:05.874Z,0
2017-04-18T03:32:46.427Z,0
2017-04-18T03:33:26.948Z,0
2017-04-18T03:34:07.462Z,0
2017-04-18T03:34:47.999Z,0
2017-04-18T03:35:28.532Z,0
2017-04-18T03:36:09.069Z,0
2017-04-18T03:36:49.599Z,0
2017-04-18T03:37:30.125Z,0
2017-04-18T03:38:10.650Z,0
2017-04-18T03:38:51.218Z,0
2017-04-18T03:39:31.733Z,0
2017-04-18T03:40:12.267Z,0
2017-04-18T03:40:52.775Z,0
2017-04-18T03:41:33.339Z,0
2017-04-18T03:42:13.862Z,0
2017-04-18T03:42:54.413Z,0
2017-04-18T03:43:34.965Z,0
2017-04-18T03:44:15.476Z,0
2017-04-18T03:44:56.004Z,0
2017-04-18T03:45:36.540Z,0
2017-04-18T03:46:17.072Z,0
2017-04-18T03:46:57.606Z,0
2017-04-18T03:47:38.141Z,0
2017-04-18T03:48:18.690Z,0
2017-04-18T03:48:59.210Z,0
2017-04-18T03:49:39.739Z,0
2017-04-18T03:50:20.281Z,0
2017-04-18T03:51:00.812Z,0
2017-04-18T03:51:41.339Z,0
2017-04-18T03:52:21.881Z,0
2017-04-18T03:53:02.409Z,0
2017-04-18T03:53:42.943Z,0
2017-04-18T03:54:23.464Z,0
2017-04-18T03:55:03.999Z,0
2017-04-18T03:55:44.544Z,0
2017-04-18T03:56:25.084Z,0
2017-04-18T03:57:05.603Z,0
2017-04-18T03:57:46.145Z,0
2017-04-18T03:58:26.682Z,0
2017-04-18T03:59:07.224Z,0
2017-04-18T03:59:47.763Z,0
2017-04-18T04:00:28.297Z,0
2017-04-18T04:01:08.848Z,0
2017-04-18T04:01:49.372Z,0
2017-04-18T04:02:29.893Z,0
2017-04-18T04:03:10.455Z,0
2017-04-18T04:03:50.953Z,0
2017-04-18T04:04:31.460Z,0
2017-04-18T04:05:12.024Z,0
2017-04-18T04:05:52.554Z,0
2017-04-18T04:06:33.158Z,0
2017-04-18T04:07:13.663Z,0
2017-04-18T04:07:54.190Z,0
2017-04-18T04:08:34.769Z,0
2017-04-18T04:09:15.315Z,0
2017-04-18T04:09:55.848Z,0
2017-04-18T04:10:36.425Z,0
2017-04-18T04:11:16.950Z,0
2017-04-18T04:11:57.545Z,0
2017-04-18T04:12:38.049Z,0
2017-04-18T04:13:18.577Z,0
2017-04-18T04:13:59.162Z,0
2017-04-18T04:14:39.730Z,0
2017-04-18T04:15:20.267Z,0
2017-04-18T04:16:00.796Z,0
2017-04-18T04:16:41.344Z,0
2017-04-18T04:17:21.890Z,0
2017-04-18T04:18:02.387Z,0
2017-04-18T04:18:42.946Z,0
2017-04-18T04:19:23.445Z,0
2017-04-18T04:20:03.991Z,0
2017-04-18T04:20:44.523Z,0
2017-04-18T04:21:25.057Z,0
2017-04-18T04:22:05.581Z,0
2017-04-18T04:22:46.106Z,0
2017-04-18T04:23:26.637Z,0
2017-04-18T04:24:07.166Z,0
2017-04-18T04:24:47.685Z,0
2017-04-18T04:25:28.210Z,0
2017-04-18T04:26:08.741Z,0
2017-04-18T04:26:49.268Z,0
2017-04-18T04:27:29.781Z,0
2017-04-18T04:28:10.307Z,0
2017-04-18T04:28:50.840Z,0
2017-04-18T04:29:31.372Z,0
2017-04-18T04:30:11.890Z,0
2017-04-18T04:30:52.429Z,0
2017-04-18T04:31:32.962Z,0
2017-04-18T04:32:13.479Z,0
2017-04-18T04:32:53.989Z,0
2017-04-18T04:33:34.510Z,0
2017-04-18T04:34:15.037Z,0
2017-04-18T04:34:55.583Z,0
2017-04-18T04:35:36.099Z,0
2017-04-18T04:36:16.625Z,0
2017-04-18T04:36:57.170Z,0
2017-04-18T04:37:37.710Z,0
2017-04-18T04:38:18.319Z,0
2017-04-18T04:38:58.828Z,0
2017-04-18T04:39:39.359Z,0
2017-04-18T04:40:19.891Z,0
2017-04-18T04:41:00.432Z,0
2017-04-18T04:41:40.979Z,0
2017-04-18T04:42:21.494Z,0
2017-04-18T04:43:02.009Z,5
2017-04-18T04:43:42.546Z,5
2017-04-18T04:44:23.077Z,5
2017-04-18T04:45:03.607Z,5
2017-04-18T04:45:44.122Z,5
2017-04-18T04:46:24.644Z,5
2017-04-18T04:47:05.178Z,5
2017-04-18T04:47:45.705Z,5
2017-04-18T04:48:26.252Z,5
2017-04-18T04:49:06.773Z,5
2017-04-18T04:49:47.384Z,5
2017-04-18T04:50:27.913Z,5
2017-04-18T04:51:08.452Z,5
2017-04-18T04:51:48.992Z,5
2017-04-18T04:52:29.509Z,10
2017-04-18T04:53:10.054Z,10
2017-04-18T04:53:50.557Z,10
2017-04-18T04:54:31.080Z,10
2017-04-18T04:55:11.611Z,15
2017-04-18T04:55:52.140Z,15
2017-04-18T04:56:32.677Z,15
2017-04-18T04:57:13.207Z,15
2017-04-18T04:57:53.728Z,15
2017-04-18T04:58:34.258Z,15
2017-04-18T04:59:14.789Z,15
2017-04-18T04:59:55.301Z,10
2017-04-18T05:00:35.816Z,10
2017-04-18T05:01:16.338Z,10
2017-04-18T05:01:56.858Z,15
2017-04-18T05:02:37.382Z,10
2017-04-18T05:03:17.920Z,10
2017-04-18T05:03:58.442Z,15
2017-04-18T05:04:38.970Z,10
2017-04-18T05:05:19.482Z,15
2017-04-18T05:06:00.012Z,15
2017-04-18T05:06:40.531Z,10
2017-04-18T05:07:21.063Z,10
2017-04-18T05:08:01.609Z,10
2017-04-18T05:08:42.152Z,10
2017-04-18T05:09:22.669Z,10
2017-04-18T05:10:03.193Z,10
2017-04-18T05:10:43.709Z,10
2017-04-18T05:11:24.240Z,10
2017-04-18T05:12:04.773Z,15
2017-04-18T05:12:45.297Z,15
2017-04-18T05:13:25.830Z,15
2017-04-18T05:14:06.339Z,20
2017-04-18T05:14:46.870Z,20
2017-04-18T05:15:27.398Z,20
2017-04-18T05:16:07.909Z,25
2017-04-18T05:16:48.428Z,30
2017-04-18T05:17:28.948Z,25
2017-04-18T05:18:09.475Z,25
2017-04-18T05:18:49.985Z,25
2017-04-18T05:19:30.523Z,20
2017-04-18T05:20:11.046Z,20
2017-04-18T05:20:51.554Z,15
2017-04-18T05:21:32.081Z,15
2017-04-18T05:22:12.596Z,20
2017-04-18T05:22:53.105Z,25
2017-04-18T05:23:33.632Z,25
2017-04-18T05:24:14.165Z,25
2017-04-18T05:24:54.691Z,30
2017-04-18T05:25:35.218Z,30
2017-04-18T05:26:15.759Z,30
2017-04-18T05:26:56.300Z,30
2017-04-18T05:27:36.833Z,35
2017-04-18T05:28:17.338Z,40
2017-04-18T05:28:57.866Z,35
2017-04-18T05:29:38.410Z,35
2017-04-18T05:30:18.939Z,35
2017-04-18T05:30:59.454Z,30
2017-04-18T05:31:39.968Z,35
2017-04-18T05:32:20.485Z,40
2017-04-18T05:33:01.021Z,40
2017-04-18T05:33:41.551Z,40
2017-04-18T05:34:22.068Z,35
2017-04-18T05:35:02.594Z,40
2017-04-18T05:35:43.128Z,45
2017-04-18T05:36:23.642Z,60
2017-04-18T05:37:04.190Z,65
2017-04-18T05:37:44.702Z,65
2017-04-18T05:38:25.246Z,55
2017-04-18T05:39:05.825Z,55
2017-04-18T05:39:46.373Z,60
2017-04-18T05:40:26.900Z,65
2017-04-18T05:41:07.413Z,65
2017-04-18T05:41:47.927Z,65
2017-04-18T05:42:28.447Z,70
2017-04-18T05:43:08.991Z,75
2017-04-18T05:43:49.530Z,60
2017-04-18T05:44:30.065Z,50
2017-04-18T05:45:10.595Z,50
2017-04-18T05:45:51.123Z,50
2017-04-18T05:46:31.643Z,50
2017-04-18T05:47:12.178Z,50
2017-04-18T05:47:52.701Z,50
2017-04-18T05:48:33.241Z,50
2017-04-18T05:49:13.741Z,45
2017-04-18T05:49:54.265Z,40
2017-04-18T05:50:34.764Z,35
2017-04-18T05:51:15.285Z,30
2017-04-18T05:51:56.025Z,35
2017-04-18T05:52:36.781Z,40
2017-04-18T05:53:17.309Z,40
2017-04-18T05:53:57.812Z,45
2017-04-18T05:54:38.343Z,45
2017-04-18T05:55:18.854Z,40
2017-04-18T05:55:59.348Z,50
2017-04-18T05:56:39.885Z,65
2017-04-18T05:57:20.443Z,70
2017-04-18T05:58:00.938Z,70
2017-04-18T05:58:41.504Z,70
2017-04-18T05:59:22.094Z,70
2017-04-18T06:00:02.582Z,65
2017-04-18T06:00:43.288Z,65
2017-04-18T06:01:23.773Z,65
2017-04-18T06:02:04.447Z,65
2017-04-18T06:02:44.924Z,65
2017-04-18T06:03:25.514Z,70
2017-04-18T06:04:06.057Z,70
2017-04-18T06:04:46.625Z,65
2017-04-18T06:05:27.259Z,75
2017-04-18T06:06:07.710Z,80
2017-04-18T06:06:48.400Z,85
2017-04-18T06:07:29.030Z,90
2017-04-18T06:08:09.631Z,95
2017-04-18T06:08:50.233Z,95
2017-04-18T06:09:30.892Z,95
2017-04-18T06:10:11.514Z,90
2017-04-18T06:10:52.161Z,85
2017-04-18T06:11:32.846Z,80
2017-04-18T06:12:13.396Z,85
2017-04-18T06:12:53.902Z,85
2017-04-18T06:13:34.476Z,80
2017-04-18T06:14:15.056Z,75
2017-04-18T06:14:55.643Z,70
2017-04-18T06:15:36.333Z,75
2017-04-18T06:16:16.961Z,80
2017-04-18T06:16:57.466Z,85
2017-04-18T06:17:38.032Z,90
2017-04-18T06:18:18.702Z,85
2017-04-18T06:18:59.528Z,85
2017-04-18T06:19:40.094Z,90
2017-04-18T06:20:20.982Z,80
2017-04-18T06:21:01.726Z,65
2017-04-18T06:21:42.482Z,60
2017-04-18T06:22:22.963Z,60
2017-04-18T06:23:03.617Z,60
2017-04-18T06:23:44.242Z,65
2017-04-18T06:24:24.805Z,60
2017-04-18T06:25:05.325Z,55
2017-04-18T06:25:45.902Z,55
2017-04-18T06:26:26.542Z,75
2017-04-18T06:27:07.108Z,85
2017-04-18T06:27:47.830Z,70
2017-04-18T06:28:28.524Z,55
2017-04-18T06:29:09.233Z,55
2017-04-18T06:29:49.743Z,60
2017-04-18T06:30:30.651Z,75
2017-04-18T06:31:11.317Z,90
2017-04-18T06:31:51.976Z,110
2017-04-18T06:32:32.639Z,115
2017-04-18T06:33:13.400Z,120
2017-04-18T06:33:54.197Z,115
2017-04-18T06:34:34.881Z,110
2017-04-18T06:35:15.604Z,115
2017-04-18T06:35:56.485Z,125
2017-04-18T06:36:37.117Z,135
2017-04-18T06:37:17.887Z,140
2017-04-18T06:37:58.493Z,140
2017-04-18T06:38:39.102Z,135
2017-04-18T06:39:19.969Z,145
2017-04-18T06:40:00.740Z,150
2017-04-18T06:40:41.576Z,150
2017-04-18T06:41:22.240Z,145
2017-04-18T06:42:02.928Z,135
2017-04-18T06:42:43.631Z,125
2017-04-18T06:43:24.346Z,125
2017-04-18T06:44:04.871Z,130
2017-04-18T06:44:45.441Z,135
2017-04-18T06:45:26.153Z,145
2017-04-18T06:46:06.997Z,150
2017-04-18T06:46:47.457Z,150
2017-04-18T06:47:28.111Z,150
2017-04-18T06:48:08.763Z,145
2017-04-18T06:48:49.339Z,150
2017-04-18T06:49:30.098Z,150
2017-04-18T06:50:10.744Z,150
2017-04-18T06:50:51.504Z,155
2017-04-18T06:51:32.044Z,160
2017-04-18T06:52:12.662Z,160
2017-04-18T06:52:53.184Z,155
2017-04-18T06:53:33.802Z,165
2017-04-18T06:54:14.397Z,170
2017-04-18T06:54:54.936Z,180
2017-04-18T06:55:35.411Z,185
2017-04-18T06:56:15.962Z,190
2017-04-18T06:56:56.524Z,195
2017-04-18T06:57:37.079Z,190
2017-04-18T06:58:17.598Z,190
2017-04-18T06:58:58.129Z,185
2017-04-18T06:59:38.656Z,185
2017-04-18T07:00:19.193Z,180
2017-04-18T07:00:59.745Z,180
2017-04-18T07:01:40.286Z,200
2017-04-18T07:02:20.825Z,215
2017-04-18T07:03:01.353Z,230
2017-04-18T07:03:41.871Z,240
2017-04-18T07:04:22.378Z,245
2017-04-18T07:05:02.945Z,240
2017-04-18T07:05:43.455Z,245
2017-04-18T07:06:24.025Z,260
2017-04-18T07:07:04.542Z,280
2017-04-18T07:07:45.041Z,290
2017-04-18T07:08:25.594Z,285
2017-04-18T07:09:06.107Z,275
2017-04-18T07:09:46.694Z,245
2017-04-18T07:10:27.552Z,220
2017-04-18T07:11:08.182Z,200
2017-04-18T07:11:48.724Z,185
2017-04-18T07:12:29.273Z,190
2017-04-18T07:13:09.866Z,195
2017-04-18T07:13:50.530Z,205
2017-04-18T07:14:31.075Z,215
2017-04-18T07:15:11.721Z,225
2017-04-18T07:15:52.296Z,230
2017-04-18T07:16:32.916Z,250
2017-04-18T07:17:13.553Z,280
2017-04-18T07:17:54.196Z,290
2017-04-18T07:18:34.865Z,280
2017-04-18T07:19:15.376Z,295
2017-04-18T07:19:55.960Z,310
2017-04-18T07:20:36.543Z,320
2017-04-18T07:21:17.092Z,325
2017-04-18T07:21:57.724Z,335
2017-04-18T07:22:38.300Z,340
2017-04-18T07:23:19.049Z,360
2017-04-18T07:23:59.705Z,375
2017-04-18T07:24:40.241Z,370
2017-04-18T07:25:20.858Z,445
2017-04-18T07:26:01.389Z,375
2017-04-18T07:26:42.033Z,405
2017-04-18T07:27:22.614Z,435
2017-04-18T07:28:03.152Z,445
2017-04-18T07:28:43.664Z,470
2017-04-18T07:29:24.191Z,500
2017-04-18T07:30:04.713Z,505
2017-04-18T07:30:45.244Z,435
2017-04-18T07:31:25.780Z,390
2017-04-18T07:32:06.291Z,385
2017-04-18T07:32:46.801Z,460
2017-04-18T07:33:27.321Z,345
2017-04-18T07:34:07.849Z,390
2017-04-18T07:34:48.376Z,455
2017-04-18T07:35:28.919Z,375
2017-04-18T07:36:09.442Z,390
2017-04-18T07:36:49.980Z,395
2017-04-18T07:37:30.503Z,360
2017-04-18T07:38:11.040Z,475
2017-04-18T07:38:51.557Z,425
2017-04-18T07:39:32.074Z,850
2017-04-18T07:40:12.593Z,790
2017-04-18T07:40:53.107Z,1105
2017-04-18T07:41:33.614Z,365
2017-04-18T07:42:14.142Z,310
2017-04-18T07:42:54.677Z,920
2017-04-18T07:43:35.216Z,1585
2017-04-18T07:44:15.722Z,485
2017-04-18T07:44:56.252Z,650
2017-04-18T07:45:36.773Z,820
2017-04-18T07:46:17.285Z,1160
2017-04-18T07:46:57.794Z,1465
2017-04-18T07:47:38.335Z,265
2017-04-18T07:48:18.851Z,325
2017-04-18T07:48:59.356Z,655
2017-04-18T07:49:39.884Z,1050
2017-04-18T07:50:20.408Z,405
2017-04-18T07:51:00.932Z,400
2017-04-18T07:51:41.451Z,640
2017-04-18T07:52:21.993Z,1845
2017-04-18T07:53:02.526Z,1930
2017-04-18T07:53:43.021Z,485
2017-04-18T07:54:23.609Z,475
2017-04-18T07:55:04.124Z,425
2017-04-18T07:55:44.628Z,515
2017-04-18T07:56:25.167Z,2020
2017-04-18T07:57:05.687Z,2080
2017-04-18T07:57:46.222Z,2015
2017-04-18T07:58:26.756Z,2070
2017-04-18T07:59:07.295Z,2100
2017-04-18T07:59:47.806Z,2230
2017-04-18T08:00:28.347Z,2105
2017-04-18T08:01:08.867Z,1395
2017-04-18T08:01:49.395Z,2270
2017-04-18T08:02:29.920Z,2300
2017-04-18T08:03:10.431Z,2245
2017-04-18T08:03:50.943Z,1040
2017-04-18T08:04:31.479Z,1500
2017-04-18T08:05:12.019Z,2135
2017-04-18T08:05:52.559Z,410
2017-04-18T08:06:33.071Z,1390
2017-04-18T08:07:13.598Z,475
2017-04-18T08:07:54.129Z,1490
2017-04-18T08:08:34.678Z,1900
2017-04-18T08:09:15.187Z,915
2017-04-18T08:09:55.722Z,2245
2017-04-18T08:10:36.243Z,2230
2017-04-18T08:11:16.786Z,2165
2017-04-18T08:11:57.293Z,2205
2017-04-18T08:12:37.828Z,380
2017-04-18T08:13:18.363Z,375
2017-04-18T08:13:58.905Z,955
2017-04-18T08:14:40.286Z,2440
2017-04-18T08:15:20.818Z,1345
2017-04-18T08:16:01.337Z,280
2017-04-18T08:16:41.852Z,215
2017-04-18T08:17:22.370Z,190
2017-04-18T08:18:02.883Z,190
2017-04-18T08:18:43.408Z,210
2017-04-18T08:19:23.931Z,285
2017-04-18T08:20:04.457Z,280
2017-04-18T08:20:44.987Z,295
2017-04-18T08:21:25.481Z,365
2017-04-18T08:22:06.005Z,325
2017-04-18T08:22:46.525Z,360
2017-04-18T08:23:27.054Z,1905
2017-04-18T08:24:07.573Z,1450
2017-04-18T08:24:48.101Z,1735
2017-04-18T08:25:28.609Z,1710
2017-04-18T08:26:09.133Z,1675
2017-04-18T08:26:49.653Z,285
2017-04-18T08:27:30.184Z,650
2017-04-18T08:28:10.725Z,280
2017-04-18T08:28:51.253Z,245
2017-04-18T08:29:31.779Z,290
2017-04-18T08:30:12.299Z,445
2017-04-18T08:30:52.806Z,2185
2017-04-18T08:31:33.368Z,920
2017-04-18T08:32:13.948Z,390
2017-04-18T08:32:54.509Z,455
2017-04-18T08:33:35.039Z,485
2017-04-18T08:34:15.544Z,530
2017-04-18T08:34:56.078Z,1545
2017-04-18T08:35:36.614Z,560
2017-04-18T08:36:17.134Z,360
2017-04-18T08:36:57.661Z,370
2017-04-18T08:37:38.164Z,375
2017-04-18T08:38:18.709Z,400
2017-04-18T08:38:59.225Z,425
2017-04-18T08:39:39.750Z,460
2017-04-18T08:40:20.261Z,830
2017-04-18T08:41:00.796Z,1150
2017-04-18T08:41:41.323Z,370
2017-04-18T08:42:21.821Z,325
2017-04-18T08:43:02.357Z,325
2017-04-18T08:43:42.881Z,330
2017-04-18T08:44:23.398Z,385
2017-04-18T08:45:03.951Z,445
2017-04-18T08:45:44.465Z,2950
2017-04-18T08:46:25.271Z,2765
2017-04-18T08:47:05.777Z,2055
2017-04-18T08:47:46.300Z,530
2017-04-18T08:48:26.966Z,560
2017-04-18T08:49:07.488Z,450
2017-04-18T08:49:48.021Z,470
2017-04-18T08:50:28.555Z,430
2017-04-18T08:51:09.096Z,415
2017-04-18T08:51:49.618Z,515
2017-04-18T08:52:30.145Z,640
2017-04-18T08:53:10.665Z,605
2017-04-18T08:53:51.193Z,520
2017-04-18T08:54:31.726Z,505
2017-04-18T08:55:12.258Z,500
2017-04-18T08:55:52.781Z,445
2017-04-18T08:56:33.299Z,530
2017-04-18T08:57:13.831Z,595
2017-04-18T08:57:54.363Z,1160
2017-04-18T08:58:34.910Z,565
2017-04-18T08:59:15.471Z,400
2017-04-18T08:59:55.988Z,385
2017-04-18T09:00:36.520Z,335
2017-04-18T09:01:17.043Z,285
2017-04-18T09:01:57.550Z,250
2017-04-18T09:02:38.081Z,225
2017-04-18T09:03:18.602Z,235
2017-04-18T09:03:59.139Z,265
2017-04-18T09:04:39.667Z,290
2017-04-18T09:05:20.185Z,270
2017-04-18T09:06:00.706Z,350
2017-04-18T09:06:41.230Z,455
2017-04-18T09:07:21.743Z,450
2017-04-18T09:08:02.266Z,385
2017-04-18T09:08:42.797Z,360
2017-04-18T09:09:23.354Z,315
2017-04-18T09:10:03.870Z,305
2017-04-18T09:10:44.384Z,315
2017-04-18T09:11:24.918Z,310
2017-04-18T09:12:05.418Z,325
2017-04-18T09:12:45.940Z,420
2017-04-18T09:13:26.492Z,470
2017-04-18T09:14:07.624Z,520
2017-04-18T09:14:48.157Z,670
2017-04-18T09:15:28.677Z,640
2017-04-18T09:16:09.217Z,465
2017-04-18T09:16:49.716Z,370
2017-04-18T09:17:30.238Z,315
2017-04-18T09:18:10.763Z,265
2017-04-18T09:18:51.288Z,240
2017-04-18T09:19:31.817Z,210
2017-04-18T09:20:12.331Z,175
2017-04-18T09:20:52.865Z,165
2017-04-18T09:21:33.380Z,205
2017-04-18T09:22:13.934Z,280
2017-04-18T09:22:54.468Z,330
2017-04-18T09:23:34.991Z,370
2017-04-18T09:24:15.498Z,375
2017-04-18T09:24:56.015Z,435
2017-04-18T09:25:36.551Z,370
2017-04-18T09:26:17.069Z,370
2017-04-18T09:26:57.600Z,335
2017-04-18T09:27:38.137Z,485
2017-04-18T09:28:18.738Z,500
2017-04-18T09:28:59.255Z,535
2017-04-18T09:29:39.821Z,595
2017-04-18T09:30:20.325Z,610
2017-04-18T09:31:00.870Z,425
2017-04-18T09:31:41.531Z,350
2017-04-18T09:32:22.110Z,1380
2017-04-18T09:33:02.867Z,1910
2017-04-18T09:33:43.550Z,2405
2017-04-18T09:34:24.216Z,2760
2017-04-18T09:35:04.659Z,2930
2017-04-18T09:35:45.193Z,2750
2017-04-18T09:36:25.983Z,3320
2017-04-18T09:37:06.924Z,3450
2017-04-18T09:37:47.916Z,3320
2017-04-18T09:38:28.347Z,3310
2017-04-18T09:39:08.843Z,640
2017-04-18T09:39:49.496Z,845
2017-04-18T09:40:29.921Z,2725
2017-04-18T09:41:10.458Z,1645